createdAt,value
2023-03-03T00:02:30.551Z,59.21
2023-03-03T00:05:34.523Z,58.38
2023-03-03T00:08:37.702Z,58.45
2023-03-03T00:11:41.373Z,57.92
2023-03-03T00:14:43.824Z,57.69
2023-03-03T00:17:48.171Z,58.81
2023-03-03T00:20:54.446Z,58.70
2023-03-03T00:24:41.511Z,58.70
2023-03-03T00:27:43.875Z,57.99
2023-03-03T00:30:46.323Z,58.34
2023-03-03T00:33:54.951Z,58.70
2023-03-03T00:36:58.312Z,58.40
2023-03-03T00:40:22.108Z,58.76
2023-03-03T00:43:28.365Z,58.06
2023-03-03T00:46:31.123Z,58.29
2023-03-03T00:49:33.883Z,57.92
2023-03-03T00:53:01.346Z,58.48
2023-03-03T00:56:03.511Z,57.88
2023-03-03T00:59:08.032Z,58.80
2023-03-03T01:02:10.472Z,58.42
2023-03-03T01:05:17.725Z,58.22
2023-03-03T01:08:22.720Z,57.46
2023-03-03T01:11:28.692Z,57.51
2023-03-03T01:14:32.424Z,57.28
2023-03-03T01:17:36.873Z,56.93
2023-03-03T01:20:39.446Z,57.91
2023-03-03T01:23:41.604Z,57.58
2023-03-03T01:26:46.839Z,57.63
2023-03-03T01:29:48.878Z,57.81
2023-03-03T01:32:50.908Z,58.63
2023-03-03T01:35:57.111Z,57.59
2023-03-03T01:39:00.564Z,57.61
2023-03-03T01:42:04.132Z,57.33
2023-03-03T01:45:31.457Z,56.41
2023-03-03T01:48:44.930Z,56.99
2023-03-03T01:51:54.193Z,56.57
2023-03-03T01:55:00.968Z,56.68
2023-03-03T01:58:11.380Z,56.85
2023-03-03T02:01:25.031Z,56.25
2023-03-03T02:04:27.778Z,56.37
2023-03-03T02:07:31.926Z,56.94
2023-03-03T02:10:36.146Z,56.63
2023-03-03T02:13:42.562Z,56.30
2023-03-03T02:16:45.071Z,56.36
2023-03-03T02:20:11.215Z,55.50
2023-03-03T02:23:38.442Z,55.80
2023-03-03T02:26:42.196Z,55.72
2023-03-03T02:29:45.987Z,55.22
2023-03-03T02:32:48.418Z,55.68
2023-03-03T02:35:52.077Z,55.78
2023-03-03T02:39:20.857Z,55.71
2023-03-03T02:42:29.989Z,55.44
2023-03-03T02:45:33.886Z,55.75
2023-03-03T02:48:36.027Z,55.70
2023-03-03T02:51:38.917Z,55.39
2023-03-03T02:54:41.121Z,55.57
2023-03-03T02:57:43.602Z,55.50
2023-03-03T03:00:48.250Z,55.58
2023-03-03T03:03:54.175Z,56.01
2023-03-03T03:06:58.430Z,55.22
2023-03-03T03:10:02.460Z,55.37
2023-03-03T03:13:06.971Z,55.13
2023-03-03T03:16:09.591Z,55.62
2023-03-03T03:19:11.977Z,55.62
2023-03-03T03:22:15.564Z,57.79
2023-03-03T03:25:19.530Z,56.69
2023-03-03T03:28:23.504Z,56.38
2023-03-03T03:31:26.076Z,56.38
2023-03-03T03:34:28.123Z,56.35
2023-03-03T03:37:32.024Z,56.43
2023-03-03T03:40:34.190Z,55.69
2023-03-03T03:43:36.484Z,55.88
2023-03-03T03:46:39.887Z,55.12
2023-03-03T03:49:42.783Z,55.66
2023-03-03T03:52:45.041Z,55.58
2023-03-03T03:55:48.307Z,55.26
2023-03-03T03:58:52.016Z,54.77
2023-03-03T04:01:54.090Z,54.64
2023-03-03T04:05:00.567Z,54.52
2023-03-03T04:08:03.744Z,54.56
2023-03-03T04:11:05.909Z,54.90
2023-03-03T04:14:08.129Z,55.13
2023-03-03T04:17:22.577Z,55.59
2023-03-03T04:20:24.743Z,55.54
2023-03-03T04:23:29.113Z,55.08
2023-03-03T04:26:32.037Z,54.87
2023-03-03T04:29:36.374Z,54.96
2023-03-03T04:32:38.972Z,55.10
2023-03-03T04:35:45.743Z,55.01
2023-03-03T04:38:48.030Z,54.76
2023-03-03T04:41:50.494Z,54.86
2023-03-03T04:44:53.746Z,54.31
2023-03-03T04:47:56.134Z,54.41
2023-03-03T04:50:58.477Z,54.67
2023-03-03T04:54:03.111Z,54.81
2023-03-03T04:57:05.437Z,54.85
2023-03-03T05:00:09.026Z,54.79
2023-03-03T05:03:13.040Z,55.05
2023-03-03T05:06:20.934Z,55.19
2023-03-03T05:09:24.979Z,55.04
2023-03-03T05:12:30.246Z,54.96
2023-03-03T05:15:33.060Z,54.57
2023-03-03T05:18:35.216Z,54.25
2023-03-03T05:21:38.025Z,53.99
2023-03-03T05:24:40.212Z,54.32
2023-03-03T05:27:44.176Z,53.46
2023-03-03T05:30:46.550Z,53.71
2023-03-03T05:33:48.689Z,53.49
2023-03-03T05:36:51.066Z,53.19
2023-03-03T05:39:53.160Z,53.63
2023-03-03T05:42:55.478Z,53.94
2023-03-03T05:45:59.242Z,53.87
2023-03-03T05:49:02.466Z,53.87
2023-03-03T05:52:04.737Z,53.36
2023-03-03T05:55:07.257Z,53.34
2023-03-03T05:58:09.588Z,54.21
2023-03-03T06:01:12.373Z,54.25
2023-03-03T06:04:14.839Z,53.96
2023-03-03T06:07:17.091Z,54.00
2023-03-03T06:10:19.329Z,53.85
2023-03-03T06:13:25.568Z,69.42
2023-03-03T06:16:27.521Z,78.53
2023-03-03T06:19:30.400Z,83.09
2023-03-03T06:22:34.440Z,88.64
2023-03-03T06:25:36.428Z,95.30
2023-03-03T06:28:38.409Z,100.00
2023-03-03T06:31:40.389Z,98.45
2023-03-03T06:34:42.303Z,98.54
2023-03-03T06:37:44.472Z,98.28
2023-03-03T06:40:47.300Z,98.45
2023-03-03T06:43:49.349Z,98.96
2023-03-03T06:46:51.253Z,100.00
2023-03-03T06:49:53.224Z,100.00
2023-03-03T06:53:16.010Z,100.00
2023-03-03T06:56:19.961Z,98.88
2023-03-03T06:59:22.521Z,95.45
2023-03-03T07:02:24.719Z,100.00
2023-03-03T07:05:29.099Z,100.00
2023-03-03T07:08:32.537Z,95.30
2023-03-03T07:11:37.318Z,94.21
2023-03-03T07:15:12.798Z,95.25
2023-03-03T07:18:30.114Z,95.47
2023-03-03T07:21:36.454Z,95.15
2023-03-03T07:24:41.777Z,95.91
2023-03-03T07:27:44.226Z,95.90
2023-03-03T07:30:46.472Z,97.57
2023-03-03T07:33:48.457Z,96.81
2023-03-03T07:36:54.327Z,98.31
2023-03-03T07:39:57.001Z,98.68
2023-03-03T07:42:59.170Z,98.05
2023-03-03T07:46:10.731Z,96.68
2023-03-03T07:49:36.098Z,95.00
2023-03-03T07:52:43.435Z,94.30
2023-03-03T07:55:45.946Z,88.83
2023-03-03T07:58:48.443Z,87.57
2023-03-03T08:01:56.691Z,86.77
2023-03-03T08:04:58.805Z,90.22
2023-03-03T08:08:32.803Z,90.14
2023-03-03T08:11:34.907Z,94.59
2023-03-03T08:14:38.872Z,100.00
2023-03-03T08:17:43.494Z,100.00
2023-03-03T08:20:48.271Z,100.00
2023-03-03T08:23:51.916Z,100.00
2023-03-03T08:26:54.049Z,97.45
2023-03-03T08:29:56.199Z,98.09
2023-03-03T08:32:58.455Z,87.97
2023-03-03T08:36:01.148Z,78.05
2023-03-03T08:39:05.184Z,80.24
2023-03-03T08:42:07.168Z,85.20
2023-03-03T08:45:10.154Z,91.58
2023-03-03T08:48:12.556Z,94.41
2023-03-03T08:51:20.320Z,95.49
2023-03-03T08:54:22.517Z,99.24
2023-03-03T08:57:24.925Z,100.00
2023-03-03T09:00:27.178Z,100.00
2023-03-03T09:03:30.042Z,100.00
2023-03-03T09:06:32.170Z,100.00
2023-03-03T09:09:34.183Z,87.75
2023-03-03T09:13:04.230Z,58.51
2023-03-03T09:16:17.084Z,46.06
2023-03-03T09:19:27.094Z,47.43
2023-03-03T09:22:29.880Z,48.94
2023-03-03T09:25:37.749Z,51.38
2023-03-03T09:28:39.910Z,57.28
2023-03-03T09:31:48.724Z,63.03
2023-03-03T09:34:50.856Z,66.57
2023-03-03T09:37:52.960Z,67.16
2023-03-03T09:40:57.798Z,68.80
2023-03-03T09:44:12.298Z,67.75
2023-03-03T09:47:39.727Z,67.44
2023-03-03T09:50:44.668Z,65.84
2023-03-03T09:54:09.180Z,64.75
2023-03-03T09:57:11.157Z,64.25
2023-03-03T10:00:18.999Z,68.43
2023-03-03T10:03:21.280Z,71.15
2023-03-03T10:06:39.310Z,71.35
2023-03-03T10:10:16.903Z,70.44
2023-03-03T10:13:37.682Z,69.06
2023-03-03T10:16:55.245Z,68.57
2023-03-03T10:20:18.484Z,68.86
2023-03-03T10:23:28.090Z,68.48
2023-03-03T10:27:11.706Z,66.83
2023-03-03T10:30:39.877Z,65.42
2023-03-03T10:34:10.438Z,69.92
2023-03-03T10:37:21.166Z,73.96
2023-03-03T10:40:51.709Z,72.46
2023-03-03T10:44:11.184Z,70.89
2023-03-03T10:47:29.320Z,70.64
2023-03-03T10:50:54.507Z,69.59
2023-03-03T10:54:14.892Z,70.58
2023-03-03T10:57:31.946Z,71.71
2023-03-03T11:00:36.563Z,72.46
2023-03-03T11:04:08.733Z,71.80
2023-03-03T11:07:33.062Z,70.60
2023-03-03T11:11:10.128Z,70.42
2023-03-03T11:14:29.704Z,71.79
2023-03-03T11:17:52.818Z,70.72
2023-03-03T11:21:04.047Z,71.90
2023-03-03T11:24:35.482Z,70.37
2023-03-03T11:27:55.633Z,70.35
2023-03-03T11:31:25.683Z,68.48
2023-03-03T11:35:13.286Z,68.71
2023-03-03T11:38:40.135Z,69.50
2023-03-03T11:42:09.573Z,67.71
2023-03-03T11:45:20.170Z,68.31
2023-03-03T11:48:36.301Z,65.64
2023-03-03T11:51:43.982Z,66.28
2023-03-03T11:54:53.448Z,66.15
2023-03-03T11:58:16.691Z,66.11
2023-03-03T12:01:30.982Z,64.10
2023-03-03T12:04:39.791Z,63.18
2023-03-03T12:08:08.976Z,63.58
2023-03-03T12:11:26.070Z,62.54
2023-03-03T12:14:38.805Z,62.41
2023-03-03T12:17:55.678Z,62.72
2023-03-03T12:21:13.396Z,61.39
2023-03-03T12:24:21.492Z,61.28
2023-03-03T12:27:30.203Z,61.27
2023-03-03T12:31:02.944Z,60.70
2023-03-03T12:34:23.372Z,60.84
2023-03-03T12:37:47.222Z,61.31
2023-03-03T12:41:04.161Z,60.62
2023-03-03T12:44:21.517Z,61.03
2023-03-03T12:47:50.305Z,59.80
2023-03-03T12:51:24.594Z,60.26
2023-03-03T12:54:46.829Z,58.49
2023-03-03T12:57:57.704Z,54.55
2023-03-03T13:01:28.306Z,55.88
2023-03-03T13:04:42.825Z,51.94
2023-03-03T13:07:58.239Z,51.20
2023-03-03T13:11:09.546Z,52.09
2023-03-03T13:14:14.443Z,51.93
2023-03-03T13:17:16.732Z,51.44
2023-03-03T13:20:42.677Z,52.75
2023-03-03T13:24:28.700Z,54.23
2023-03-03T13:27:39.845Z,55.15
2023-03-03T13:30:49.024Z,54.88
2023-03-03T13:33:55.685Z,55.53
2023-03-03T13:37:05.437Z,56.68
2023-03-03T13:40:13.547Z,57.39
2023-03-03T13:43:20.901Z,57.78
2023-03-03T13:46:22.868Z,57.88
2023-03-03T13:49:30.633Z,58.63
2023-03-03T13:52:37.042Z,59.17
2023-03-03T13:56:01.904Z,59.05
2023-03-03T13:59:50.751Z,59.74
2023-03-03T14:03:20.145Z,60.76
2023-03-03T14:06:24.907Z,60.67
2023-03-03T14:09:56.945Z,60.95
2023-03-03T14:13:24.068Z,61.16
2023-03-03T14:16:47.286Z,61.81
2023-03-03T14:20:03.193Z,62.38
2023-03-03T14:23:16.830Z,61.34
2023-03-03T14:26:19.198Z,61.08
2023-03-03T14:29:32.355Z,61.34
2023-03-03T14:32:45.146Z,60.71
2023-03-03T14:36:11.791Z,60.15
2023-03-03T14:39:35.698Z,59.42
2023-03-03T14:42:50.629Z,59.92
2023-03-03T14:45:56.634Z,60.40
2023-03-03T14:49:01.159Z,61.72
2023-03-03T14:52:15.140Z,59.15
2023-03-03T14:55:36.222Z,58.81
2023-03-03T14:58:42.533Z,57.44
2023-03-03T15:01:45.312Z,57.70
2023-03-03T15:04:48.875Z,58.51
2023-03-03T15:07:57.553Z,59.09
2023-03-03T15:11:25.231Z,58.64
2023-03-03T15:14:30.731Z,59.71
2023-03-03T15:17:44.475Z,60.46
2023-03-03T15:21:13.709Z,61.03
2023-03-03T15:24:39.042Z,61.48
2023-03-03T15:28:08.372Z,61.62
2023-03-03T15:31:38.481Z,61.73
2023-03-03T15:34:49.081Z,62.17
2023-03-03T15:37:59.744Z,62.75
2023-03-03T15:41:24.972Z,63.27
2023-03-03T15:44:40.697Z,62.70
2023-03-03T15:47:53.340Z,64.04
2023-03-03T15:51:13.721Z,63.79
2023-03-03T15:54:52.658Z,64.84
2023-03-03T15:57:57.518Z,65.43
2023-03-03T16:01:16.416Z,65.51
2023-03-03T16:04:22.616Z,64.68
2023-03-03T16:07:37.794Z,75.23
2023-03-03T16:10:49.093Z,75.16
2023-03-03T16:14:32.677Z,74.90
2023-03-03T16:17:55.675Z,70.31
2023-03-03T16:21:11.843Z,70.37
2023-03-03T16:25:00.256Z,71.39
2023-03-03T16:28:25.066Z,72.78
2023-03-03T16:31:34.956Z,71.29
2023-03-03T16:34:42.385Z,72.05
2023-03-03T16:37:58.850Z,71.00
2023-03-03T16:41:03.587Z,69.97
2023-03-03T16:44:52.720Z,69.70
2023-03-03T16:47:57.724Z,69.41
2023-03-03T16:51:23.550Z,68.79
2023-03-03T16:54:55.841Z,69.11
2023-03-03T16:58:37.003Z,68.59
2023-03-03T17:01:43.564Z,67.12
2023-03-03T17:05:08.591Z,67.78
2023-03-03T17:08:53.011Z,66.81
2023-03-03T17:12:00.765Z,68.10
2023-03-03T17:15:21.396Z,67.91
2023-03-03T17:18:41.555Z,67.01
2023-03-03T17:22:07.319Z,67.13
2023-03-03T17:25:23.102Z,66.41
2023-03-03T17:28:40.343Z,65.63
2023-03-03T17:31:51.332Z,68.87
2023-03-03T17:35:11.906Z,69.45
2023-03-03T17:38:32.203Z,69.28
2023-03-03T17:41:49.354Z,70.76
2023-03-03T17:44:57.464Z,73.36
2023-03-03T17:48:27.284Z,77.03
2023-03-03T17:51:32.003Z,82.25
2023-03-03T17:54:36.746Z,87.57
2023-03-03T17:58:09.381Z,95.73
2023-03-03T18:01:26.876Z,100.00
2023-03-03T18:05:15.621Z,100.00
2023-03-03T18:08:43.673Z,100.00
2023-03-03T18:12:26.659Z,100.00
2023-03-03T18:16:12.194Z,100.00
2023-03-03T18:19:56.749Z,100.00
2023-03-03T18:23:39.847Z,100.00
2023-03-03T18:26:42.715Z,100.00
2023-03-03T18:30:21.525Z,100.00
2023-03-03T18:34:01.745Z,100.00
2023-03-03T18:37:03.688Z,100.00
2023-03-03T18:40:06.109Z,100.00
2023-03-03T18:43:45.137Z,100.00
2023-03-03T18:46:49.126Z,100.00
2023-03-03T18:49:57.673Z,100.00
2023-03-03T18:53:20.142Z,100.00
2023-03-03T18:56:45.487Z,100.00
2023-03-03T19:00:14.503Z,100.00
2023-03-03T19:03:31.229Z,100.00
2023-03-03T19:06:38.271Z,100.00
2023-03-03T19:09:57.259Z,100.00
2023-03-03T19:13:00.194Z,100.00
2023-03-03T19:16:07.952Z,100.00
2023-03-03T19:19:13.009Z,100.00
2023-03-03T19:22:32.924Z,100.00
2023-03-03T19:25:35.893Z,99.92
2023-03-03T19:28:50.379Z,100.00
2023-03-03T19:32:13.918Z,100.00
2023-03-03T19:35:34.891Z,98.92
2023-03-03T19:43:09.445Z,98.25
2023-03-03T19:46:41.026Z,97.21
2023-03-03T19:50:05.358Z,95.97
2023-03-03T19:53:59.986Z,96.31
2023-03-03T19:57:05.502Z,95.54
2023-03-03T20:00:28.701Z,95.75
2023-03-03T20:04:04.370Z,94.23
2023-03-03T20:07:43.790Z,93.72
2023-03-03T20:10:45.806Z,93.65
2023-03-03T20:14:01.970Z,93.31
2023-03-03T20:17:25.168Z,91.91
2023-03-03T20:20:36.108Z,91.14
2023-03-03T20:23:50.143Z,91.33
2023-03-03T20:27:10.508Z,89.85
2023-03-03T20:30:45.329Z,89.73
2023-03-03T20:33:56.295Z,87.86
2023-03-03T20:37:34.459Z,87.60
2023-03-03T20:40:50.499Z,87.14
2023-03-03T20:44:21.591Z,84.98
2023-03-03T20:47:38.574Z,85.09
2023-03-03T20:51:10.134Z,84.38
2023-03-03T20:54:47.871Z,83.95
2023-03-03T20:57:59.140Z,84.23
2023-03-03T21:01:08.599Z,83.30
2023-03-03T21:04:22.755Z,83.66
2023-03-03T21:07:26.556Z,83.29
2023-03-03T21:10:37.978Z,81.83
2023-03-03T21:13:45.437Z,81.48
2023-03-03T21:16:48.865Z,80.36
2023-03-03T21:19:54.289Z,80.68
2023-03-03T21:22:57.948Z,80.76
2023-03-03T21:26:00.248Z,79.22
2023-03-03T21:29:03.580Z,79.77
2023-03-03T21:32:09.442Z,79.05
2023-03-03T21:35:15.225Z,78.49
2023-03-03T21:38:39.588Z,76.98
2023-03-03T21:42:13.160Z,75.96
2023-03-03T21:45:17.389Z,76.69
2023-03-03T21:48:20.542Z,76.47
2023-03-03T21:51:24.476Z,75.22
2023-03-03T21:54:26.926Z,74.88
2023-03-03T21:57:29.072Z,75.62
2023-03-03T22:00:32.875Z,74.65
2023-03-03T22:03:35.756Z,74.17
2023-03-03T22:06:37.935Z,74.06
2023-03-03T22:09:40.034Z,73.46
2023-03-03T22:12:42.066Z,73.12
2023-03-03T22:15:44.086Z,72.04
2023-03-03T22:18:46.159Z,71.47
2023-03-03T22:21:49.856Z,71.17
2023-03-03T22:24:52.009Z,70.45
2023-03-03T22:27:54.102Z,71.45
2023-03-03T22:30:57.043Z,71.81
2023-03-03T22:33:59.500Z,72.47
2023-03-03T22:37:01.606Z,71.49
2023-03-03T22:40:04.088Z,72.58
2023-03-03T22:43:10.892Z,72.19
2023-03-03T22:46:13.013Z,73.00
2023-03-03T22:49:15.099Z,72.58
2023-03-03T22:52:17.107Z,72.33
2023-03-03T22:55:19.249Z,74.17
2023-03-03T22:58:25.489Z,75.60
2023-03-03T23:01:27.741Z,74.70
2023-03-03T23:04:29.889Z,75.05
2023-03-03T23:07:31.944Z,76.03
2023-03-03T23:10:34.543Z,75.56
2023-03-03T23:13:36.626Z,75.81
2023-03-03T23:16:38.673Z,75.60
2023-03-03T23:19:40.813Z,76.15
2023-03-03T23:22:42.769Z,77.02
2023-03-03T23:25:44.823Z,76.16
2023-03-03T23:28:46.979Z,76.81
2023-03-03T23:31:48.974Z,78.42
2023-03-03T23:34:54.223Z,78.15
2023-03-03T23:37:56.271Z,78.08
2023-03-03T23:40:58.319Z,78.54
2023-03-03T23:44:00.404Z,78.35
2023-03-03T23:47:02.495Z,78.23
2023-03-03T23:50:05.050Z,78.53
2023-03-03T23:53:07.998Z,77.87
2023-03-03T23:56:10.107Z,78.28
2023-03-03T23:59:12.184Z,76.77
